sensor_id;sensor_type;location;lat;lon;timestamp;temperature;humidity
5940;DHT22;2995;-31.998;115.906;2023-11-22T00:01:49;31.40;78.00
5940;DHT22;2995;-31.998;115.906;2023-11-22T00:04:21;31.50;78.50
5940;DHT22;2995;-31.998;115.906;2023-11-22T00:06:53;31.70;77.50
5940;DHT22;2995;-31.998;115.906;2023-11-22T00:09:24;31.80;77.80
5940;DHT22;2995;-31.998;115.906;2023-11-22T00:11:55;31.90;78.10
5940;DHT22;2995;-31.998;115.906;2023-11-22T00:14:28;32.30;77.40
5940;DHT22;2995;-31.998;115.906;2023-11-22T00:17:01;32.20;77.60
5940;DHT22;2995;-31.998;115.906;2023-11-22T00:19:32;32.50;76.50
5940;DHT22;2995;-31.998;115.906;2023-11-22T00:22:03;32.60;77.00
5940;DHT22;2995;-31.998;115.906;2023-11-22T00:24:41;32.80;76.30
5940;DHT22;2995;-31.998;115.906;2023-11-22T00:27:14;33.00;76.70
5940;DHT22;2995;-31.998;115.906;2023-11-22T00:29:45;33.30;76.70
5940;DHT22;2995;-31.998;115.906;2023-11-22T00:32:18;33.30;74.40
5940;DHT22;2995;-31.998;115.906;2023-11-22T00:34:49;32.90;74.50
5940;DHT22;2995;-31.998;115.906;2023-11-22T00:37:23;32.80;75.50
5940;DHT22;2995;-31.998;115.906;2023-11-22T00:39:54;32.80;74.20
5940;DHT22;2995;-31.998;115.906;2023-11-22T00:42:27;33.10;74.40
5940;DHT22;2995;-31.998;115.906;2023-11-22T00:44:58;33.20;74.50
5940;DHT22;2995;-31.998;115.906;2023-11-22T00:47:32;33.20;74.60
5940;DHT22;2995;-31.998;115.906;2023-11-22T00:50:03;33.40;74.50
5940;DHT22;2995;-31.998;115.906;2023-11-22T00:52:35;33.60;73.90
5940;DHT22;2995;-31.998;115.906;2023-11-22T00:55:07;33.80;73.50
5940;DHT22;2995;-31.998;115.906;2023-11-22T00:57:39;33.50;73.00
5940;DHT22;2995;-31.998;115.906;2023-11-22T01:00:10;33.80;73.80
5940;DHT22;2995;-31.998;115.906;2023-11-22T01:02:45;34.10;73.10
5940;DHT22;2995;-31.998;115.906;2023-11-22T01:05:16;34.30;72.10
5940;DHT22;2995;-31.998;115.906;2023-11-22T01:07:48;34.50;72.80
5940;DHT22;2995;-31.998;115.906;2023-11-22T01:10:19;34.50;72.20
5940;DHT22;2995;-31.998;115.906;2023-11-22T01:12:51;34.40;72.10
5940;DHT22;2995;-31.998;115.906;2023-11-22T01:15:22;34.50;70.90
5940;DHT22;2995;-31.998;115.906;2023-11-22T01:17:55;34.30;71.30
5940;DHT22;2995;-31.998;115.906;2023-11-22T01:20:26;34.20;71.10
5940;DHT22;2995;-31.998;115.906;2023-11-22T01:22:58;34.30;70.50
5940;DHT22;2995;-31.998;115.906;2023-11-22T01:25:29;34.20;70.20
5940;DHT22;2995;-31.998;115.906;2023-11-22T01:28:00;34.40;69.10
5940;DHT22;2995;-31.998;115.906;2023-11-22T01:30:31;34.30;68.80
5940;DHT22;2995;-31.998;115.906;2023-11-22T01:33:04;34.30;68.70
5940;DHT22;2995;-31.998;115.906;2023-11-22T01:35:36;34.40;67.90
5940;DHT22;2995;-31.998;115.906;2023-11-22T01:38:07;34.50;67.30
5940;DHT22;2995;-31.998;115.906;2023-11-22T01:40:44;34.40;66.50
5940;DHT22;2995;-31.998;115.906;2023-11-22T01:43:17;34.50;67.20
5940;DHT22;2995;-31.998;115.906;2023-11-22T01:45:48;34.40;67.70
5940;DHT22;2995;-31.998;115.906;2023-11-22T01:48:22;34.60;67.20
5940;DHT22;2995;-31.998;115.906;2023-11-22T01:50:53;34.70;67.20
5940;DHT22;2995;-31.998;115.906;2023-11-22T01:53:25;34.90;66.50
5940;DHT22;2995;-31.998;115.906;2023-11-22T01:55:57;34.80;66.70
5940;DHT22;2995;-31.998;115.906;2023-11-22T01:58:28;34.90;66.50
5940;DHT22;2995;-31.998;115.906;2023-11-22T02:01:00;35.10;66.30
5940;DHT22;2995;-31.998;115.906;2023-11-22T02:03:34;35.40;65.60
5940;DHT22;2995;-31.998;115.906;2023-11-22T02:06:06;35.60;65.00
5940;DHT22;2995;-31.998;115.906;2023-11-22T02:08:37;35.40;64.30
5940;DHT22;2995;-31.998;115.906;2023-11-22T02:11:09;35.20;64.40
5940;DHT22;2995;-31.998;115.906;2023-11-22T02:13:40;35.20;64.20
5940;DHT22;2995;-31.998;115.906;2023-11-22T02:16:12;35.30;64.20
5940;DHT22;2995;-31.998;115.906;2023-11-22T02:18:47;35.40;64.10
5940;DHT22;2995;-31.998;115.906;2023-11-22T02:21:19;35.80;63.90
5940;DHT22;2995;-31.998;115.906;2023-11-22T02:23:52;35.70;64.20
5940;DHT22;2995;-31.998;115.906;2023-11-22T02:26:23;35.70;64.40
5940;DHT22;2995;-31.998;115.906;2023-11-22T02:28:54;35.90;62.90
5940;DHT22;2995;-31.998;115.906;2023-11-22T02:31:27;35.90;62.60
5940;DHT22;2995;-31.998;115.906;2023-11-22T02:33:58;35.80;62.30
5940;DHT22;2995;-31.998;115.906;2023-11-22T02:36:29;35.80;62.80
5940;DHT22;2995;-31.998;115.906;2023-11-22T02:39:02;35.90;62.30
5940;DHT22;2995;-31.998;115.906;2023-11-22T02:41:34;36.10;61.90
5940;DHT22;2995;-31.998;115.906;2023-11-22T02:44:06;36.30;62.30
5940;DHT22;2995;-31.998;115.906;2023-11-22T02:46:37;36.20;61.30
5940;DHT22;2995;-31.998;115.906;2023-11-22T02:49:08;36.40;61.20
5940;DHT22;2995;-31.998;115.906;2023-11-22T02:51:40;36.30;61.10
5940;DHT22;2995;-31.998;115.906;2023-11-22T02:54:13;36.40;61.00
5940;DHT22;2995;-31.998;115.906;2023-11-22T02:56:44;36.40;61.20
5940;DHT22;2995;-31.998;115.906;2023-11-22T02:59:16;36.50;61.30
5940;DHT22;2995;-31.998;115.906;2023-11-22T03:01:47;36.70;61.20
5940;DHT22;2995;-31.998;115.906;2023-11-22T03:04:19;36.80;60.60
5940;DHT22;2995;-31.998;115.906;2023-11-22T03:06:50;36.90;61.20
5940;DHT22;2995;-31.998;115.906;2023-11-22T03:09:23;36.90;60.10
5940;DHT22;2995;-31.998;115.906;2023-11-22T03:11:54;36.80;59.50
5940;DHT22;2995;-31.998;115.906;2023-11-22T03:14:26;36.60;59.40
5940;DHT22;2995;-31.998;115.906;2023-11-22T03:16:57;36.50;58.50
5940;DHT22;2995;-31.998;115.906;2023-11-22T03:19:28;36.30;59.00
5940;DHT22;2995;-31.998;115.906;2023-11-22T03:22:02;36.40;58.50
5940;DHT22;2995;-31.998;115.906;2023-11-22T03:24:35;36.40;58.40
5940;DHT22;2995;-31.998;115.906;2023-11-22T03:27:06;36.30;57.90
5940;DHT22;2995;-31.998;115.906;2023-11-22T03:29:39;36.30;58.00
5940;DHT22;2995;-31.998;115.906;2023-11-22T03:32:10;36.60;58.60
5940;DHT22;2995;-31.998;115.906;2023-11-22T03:34:41;36.70;57.80
5940;DHT22;2995;-31.998;115.906;2023-11-22T03:37:12;36.60;57.60
5940;DHT22;2995;-31.998;115.906;2023-11-22T03:39:45;37.00;57.80
5940;DHT22;2995;-31.998;115.906;2023-11-22T03:42:18;37.20;57.50
5940;DHT22;2995;-31.998;115.906;2023-11-22T03:44:49;37.10;56.90
5940;DHT22;2995;-31.998;115.906;2023-11-22T03:47:21;37.10;56.80
5940;DHT22;2995;-31.998;115.906;2023-11-22T03:49:52;37.10;56.60
5940;DHT22;2995;-31.998;115.906;2023-11-22T03:52:23;37.20;56.70
5940;DHT22;2995;-31.998;115.906;2023-11-22T03:54:57;37.20;56.20
5940;DHT22;2995;-31.998;115.906;2023-11-22T03:57:28;37.30;56.30
5940;DHT22;2995;-31.998;115.906;2023-11-22T03:59:59;37.30;56.00
5940;DHT22;2995;-31.998;115.906;2023-11-22T04:02:30;37.40;56.00
5940;DHT22;2995;-31.998;115.906;2023-11-22T04:05:01;37.30;55.50
5940;DHT22;2995;-31.998;115.906;2023-11-22T04:07:33;37.10;55.10
5940;DHT22;2995;-31.998;115.906;2023-11-22T04:10:08;37.20;55.20
5940;DHT22;2995;-31.998;115.906;2023-11-22T04:12:40;37.20;54.20
5940;DHT22;2995;-31.998;115.906;2023-11-22T04:15:11;37.40;54.70
5940;DHT22;2995;-31.998;115.906;2023-11-22T04:17:42;37.20;54.60
5940;DHT22;2995;-31.998;115.906;2023-11-22T04:20:13;37.30;54.50
5940;DHT22;2995;-31.998;115.906;2023-11-22T04:22:46;37.30;54.20
5940;DHT22;2995;-31.998;115.906;2023-11-22T04:25:19;37.50;53.90
5940;DHT22;2995;-31.998;115.906;2023-11-22T04:27:52;37.60;52.90
5940;DHT22;2995;-31.998;115.906;2023-11-22T04:30:23;37.70;52.70
5940;DHT22;2995;-31.998;115.906;2023-11-22T04:32:54;37.50;52.30
5940;DHT22;2995;-31.998;115.906;2023-11-22T04:35:25;37.40;52.70
5940;DHT22;2995;-31.998;115.906;2023-11-22T04:37:56;37.40;51.70
5940;DHT22;2995;-31.998;115.906;2023-11-22T04:40:30;37.10;51.60
5940;DHT22;2995;-31.998;115.906;2023-11-22T04:43:01;37.20;52.00
5940;DHT22;2995;-31.998;115.906;2023-11-22T04:45:33;37.40;51.50
5940;DHT22;2995;-31.998;115.906;2023-11-22T04:48:04;37.50;50.80
5940;DHT22;2995;-31.998;115.906;2023-11-22T04:50:36;37.40;50.40
5940;DHT22;2995;-31.998;115.906;2023-11-22T04:53:08;37.50;50.80
5940;DHT22;2995;-31.998;115.906;2023-11-22T04:55:41;37.30;50.00
5940;DHT22;2995;-31.998;115.906;2023-11-22T04:58:12;37.20;50.20
5940;DHT22;2995;-31.998;115.906;2023-11-22T05:00:43;37.30;49.40
5940;DHT22;2995;-31.998;115.906;2023-11-22T05:03:15;37.50;50.00
5940;DHT22;2995;-31.998;115.906;2023-11-22T05:05:46;37.80;49.50
5940;DHT22;2995;-31.998;115.906;2023-11-22T05:08:18;38.00;49.50
5940;DHT22;2995;-31.998;115.906;2023-11-22T05:10:51;38.00;49.10
5940;DHT22;2995;-31.998;115.906;2023-11-22T05:13:22;37.90;49.30
5940;DHT22;2995;-31.998;115.906;2023-11-22T05:15:54;38.10;48.90
5940;DHT22;2995;-31.998;115.906;2023-11-22T05:18:25;38.10;48.50
5940;DHT22;2995;-31.998;115.906;2023-11-22T05:20:56;38.00;48.20
5940;DHT22;2995;-31.998;115.906;2023-11-22T05:23:27;37.80;48.30
5940;DHT22;2995;-31.998;115.906;2023-11-22T05:26:01;37.70;48.80
5940;DHT22;2995;-31.998;115.906;2023-11-22T05:28:33;38.00;49.00
5940;DHT22;2995;-31.998;115.906;2023-11-22T05:31:04;38.10;48.80
5940;DHT22;2995;-31.998;115.906;2023-11-22T05:33:36;38.20;48.90
5940;DHT22;2995;-31.998;115.906;2023-11-22T05:36:08;38.30;48.30
5940;DHT22;2995;-31.998;115.906;2023-11-22T05:38:39;38.30;47.70
5940;DHT22;2995;-31.998;115.906;2023-11-22T05:41:12;38.10;47.80
5940;DHT22;2995;-31.998;115.906;2023-11-22T05:43:43;38.20;48.40
5940;DHT22;2995;-31.998;115.906;2023-11-22T05:46:15;38.40;48.40
5940;DHT22;2995;-31.998;115.906;2023-11-22T05:48:49;38.20;46.50
5940;DHT22;2995;-31.998;115.906;2023-11-22T05:51:21;38.30;47.90
5940;DHT22;2995;-31.998;115.906;2023-11-22T05:53:52;38.30;46.90
5940;DHT22;2995;-31.998;115.906;2023-11-22T05:56:25;38.40;47.40
5940;DHT22;2995;-31.998;115.906;2023-11-22T05:58:58;38.30;47.20
5940;DHT22;2995;-31.998;115.906;2023-11-22T06:01:29;38.30;47.60
5940;DHT22;2995;-31.998;115.906;2023-11-22T06:04:01;38.30;46.80
5940;DHT22;2995;-31.998;115.906;2023-11-22T06:06:32;38.20;47.30
5940;DHT22;2995;-31.998;115.906;2023-11-22T06:09:03;38.40;47.00
5940;DHT22;2995;-31.998;115.906;2023-11-22T06:11:37;38.50;47.20
5940;DHT22;2995;-31.998;115.906;2023-11-22T06:14:09;38.40;46.50
5940;DHT22;2995;-31.998;115.906;2023-11-22T06:16:40;38.20;47.30
5940;DHT22;2995;-31.998;115.906;2023-11-22T06:19:11;38.40;47.00
5940;DHT22;2995;-31.998;115.906;2023-11-22T06:21:42;38.60;46.80
5940;DHT22;2995;-31.998;115.906;2023-11-22T06:24:13;38.50;46.50
5940;DHT22;2995;-31.998;115.906;2023-11-22T06:26:47;38.30;46.30
5940;DHT22;2995;-31.998;115.906;2023-11-22T06:29:19;38.20;46.90
5940;DHT22;2995;-31.998;115.906;2023-11-22T06:31:52;38.10;46.60
5940;DHT22;2995;-31.998;115.906;2023-11-22T06:34:23;38.20;46.90
5940;DHT22;2995;-31.998;115.906;2023-11-22T06:36:54;38.30;46.70
5940;DHT22;2995;-31.998;115.906;2023-11-22T06:39:25;38.30;46.20
5940;DHT22;2995;-31.998;115.906;2023-11-22T06:41:59;38.30;47.00
5940;DHT22;2995;-31.998;115.906;2023-11-22T06:44:30;38.40;46.50
5940;DHT22;2995;-31.998;115.906;2023-11-22T06:47:02;38.10;46.10
5940;DHT22;2995;-31.998;115.906;2023-11-22T06:49:33;38.20;46.50
5940;DHT22;2995;-31.998;115.906;2023-11-22T06:52:04;38.30;46.70
5940;DHT22;2995;-31.998;115.906;2023-11-22T06:54:37;38.50;46.60
5940;DHT22;2995;-31.998;115.906;2023-11-22T06:57:10;38.50;46.30
5940;DHT22;2995;-31.998;115.906;2023-11-22T06:59:41;38.40;46.30
5940;DHT22;2995;-31.998;115.906;2023-11-22T07:02:12;38.40;45.90
5940;DHT22;2995;-31.998;115.906;2023-11-22T07:04:43;38.20;46.30
5940;DHT22;2995;-31.998;115.906;2023-11-22T07:07:15;38.20;46.30
5940;DHT22;2995;-31.998;115.906;2023-11-22T07:09:46;38.30;46.10
5940;DHT22;2995;-31.998;115.906;2023-11-22T07:12:20;38.30;46.20
5940;DHT22;2995;-31.998;115.906;2023-11-22T07:14:51;38.20;45.50
5940;DHT22;2995;-31.998;115.906;2023-11-22T07:17:22;37.90;45.70
5940;DHT22;2995;-31.998;115.906;2023-11-22T07:19:55;37.90;46.30
5940;DHT22;2995;-31.998;115.906;2023-11-22T07:22:27;37.70;45.50
5940;DHT22;2995;-31.998;115.906;2023-11-22T07:24:58;37.60;45.70
5940;DHT22;2995;-31.998;115.906;2023-11-22T07:27:32;37.60;45.70
5940;DHT22;2995;-31.998;115.906;2023-11-22T07:30:04;37.70;45.60
5940;DHT22;2995;-31.998;115.906;2023-11-22T07:32:35;37.60;45.80
5940;DHT22;2995;-31.998;115.906;2023-11-22T07:35:08;37.50;46.10
5940;DHT22;2995;-31.998;115.906;2023-11-22T07:37:39;37.70;46.40
5940;DHT22;2995;-31.998;115.906;2023-11-22T07:40:11;37.80;46.20
5940;DHT22;2995;-31.998;115.906;2023-11-22T07:42:45;37.90;45.70
5940;DHT22;2995;-31.998;115.906;2023-11-22T07:45:16;38.00;46.20
5940;DHT22;2995;-31.998;115.906;2023-11-22T07:47:47;38.10;46.00
5940;DHT22;2995;-31.998;115.906;2023-11-22T07:50:21;38.10;45.40
5940;DHT22;2995;-31.998;115.906;2023-11-22T07:52:52;37.80;45.00
5940;DHT22;2995;-31.998;115.906;2023-11-22T07:55:23;37.80;45.40
5940;DHT22;2995;-31.998;115.906;2023-11-22T07:57:57;37.80;45.70
5940;DHT22;2995;-31.998;115.906;2023-11-22T08:00:28;37.70;44.70
5940;DHT22;2995;-31.998;115.906;2023-11-22T08:03:02;37.80;45.40
5940;DHT22;2995;-31.998;115.906;2023-11-22T08:05:34;37.70;45.00
5940;DHT22;2995;-31.998;115.906;2023-11-22T08:08:08;37.70;45.00
5940;DHT22;2995;-31.998;115.906;2023-11-22T08:10:41;37.70;45.00
5940;DHT22;2995;-31.998;115.906;2023-11-22T08:13:14;37.60;44.60
5940;DHT22;2995;-31.998;115.906;2023-11-22T08:15:47;37.60;44.90
5940;DHT22;2995;-31.998;115.906;2023-11-22T08:18:19;37.60;44.80
5940;DHT22;2995;-31.998;115.906;2023-11-22T08:20:50;37.70;44.60
5940;DHT22;2995;-31.998;115.906;2023-11-22T08:23:21;37.60;44.20
5940;DHT22;2995;-31.998;115.906;2023-11-22T08:25:55;37.60;43.90
5940;DHT22;2995;-31.998;115.906;2023-11-22T08:28:28;37.60;44.30
5940;DHT22;2995;-31.998;115.906;2023-11-22T08:31:00;37.60;44.00
5940;DHT22;2995;-31.998;115.906;2023-11-22T08:33:32;37.50;43.60
5940;DHT22;2995;-31.998;115.906;2023-11-22T08:36:03;37.30;43.50
5940;DHT22;2995;-31.998;115.906;2023-11-22T08:38:35;37.30;43.80
5940;DHT22;2995;-31.998;115.906;2023-11-22T08:41:09;37.30;43.20
5940;DHT22;2995;-31.998;115.906;2023-11-22T08:43:43;37.20;43.70
5940;DHT22;2995;-31.998;115.906;2023-11-22T08:46:16;37.20;43.90
5940;DHT22;2995;-31.998;115.906;2023-11-22T08:48:47;37.30;43.30
5940;DHT22;2995;-31.998;115.906;2023-11-22T08:51:18;37.20;43.60
5940;DHT22;2995;-31.998;115.906;2023-11-22T08:53:50;37.20;43.40
5940;DHT22;2995;-31.998;115.906;2023-11-22T08:56:21;37.20;43.00
5940;DHT22;2995;-31.998;115.906;2023-11-22T08:58:54;37.10;43.30
5940;DHT22;2995;-31.998;115.906;2023-11-22T09:01:25;37.10;43.20
5940;DHT22;2995;-31.998;115.906;2023-11-22T09:03:57;37.00;43.00
5940;DHT22;2995;-31.998;115.906;2023-11-22T09:06:28;37.00;43.10
5940;DHT22;2995;-31.998;115.906;2023-11-22T09:09:00;37.00;43.00
5940;DHT22;2995;-31.998;115.906;2023-11-22T09:11:32;36.90;42.70
5940;DHT22;2995;-31.998;115.906;2023-11-22T09:14:05;36.70;42.60
5940;DHT22;2995;-31.998;115.906;2023-11-22T09:16:38;36.60;43.00
5940;DHT22;2995;-31.998;115.906;2023-11-22T09:19:10;36.60;42.90
5940;DHT22;2995;-31.998;115.906;2023-11-22T09:21:41;36.70;43.20
5940;DHT22;2995;-31.998;115.906;2023-11-22T09:24:13;36.60;42.40
5940;DHT22;2995;-31.998;115.906;2023-11-22T09:26:45;36.60;42.90
5940;DHT22;2995;-31.998;115.906;2023-11-22T09:29:18;36.50;42.40
5940;DHT22;2995;-31.998;115.906;2023-11-22T09:31:49;36.50;42.70
5940;DHT22;2995;-31.998;115.906;2023-11-22T09:34:20;36.40;43.10
5940;DHT22;2995;-31.998;115.906;2023-11-22T09:36:52;36.40;42.80
5940;DHT22;2995;-31.998;115.906;2023-11-22T09:39:23;36.40;42.30
5940;DHT22;2995;-31.998;115.906;2023-11-22T09:41:56;36.30;42.30
5940;DHT22;2995;-31.998;115.906;2023-11-22T09:44:29;36.20;42.40
5940;DHT22;2995;-31.998;115.906;2023-11-22T09:47:01;36.10;41.80
5940;DHT22;2995;-31.998;115.906;2023-11-22T09:49:34;36.00;42.10
5940;DHT22;2995;-31.998;115.906;2023-11-22T09:52:05;36.10;42.70
5940;DHT22;2995;-31.998;115.906;2023-11-22T09:54:40;36.00;42.30
5940;DHT22;2995;-31.998;115.906;2023-11-22T09:57:12;36.00;42.50
5940;DHT22;2995;-31.998;115.906;2023-11-22T09:59:49;36.00;42.60
5940;DHT22;2995;-31.998;115.906;2023-11-22T10:02:21;35.80;42.70
5940;DHT22;2995;-31.998;115.906;2023-11-22T10:04:55;35.80;42.70
5940;DHT22;2995;-31.998;115.906;2023-11-22T10:07:26;35.80;42.80
5940;DHT22;2995;-31.998;115.906;2023-11-22T10:09:57;35.70;42.30
5940;DHT22;2995;-31.998;115.906;2023-11-22T10:12:46;35.60;42.30
5940;DHT22;2995;-31.998;115.906;2023-11-22T10:15:48;35.70;42.60
5940;DHT22;2995;-31.998;115.906;2023-11-22T10:22:07;35.50;43.00
5940;DHT22;2995;-31.998;115.906;2023-11-22T10:24:53;35.40;42.80
5940;DHT22;2995;-31.998;115.906;2023-11-22T10:27:32;35.30;42.70
5940;DHT22;2995;-31.998;115.906;2023-11-22T10:30:35;35.30;42.80
5940;DHT22;2995;-31.998;115.906;2023-11-22T10:34:00;35.10;42.80
5940;DHT22;2995;-31.998;115.906;2023-11-22T10:36:52;35.00;42.90
5940;DHT22;2995;-31.998;115.906;2023-11-22T10:39:56;34.90;43.00
5940;DHT22;2995;-31.998;115.906;2023-11-22T10:42:50;34.80;42.90
5940;DHT22;2995;-31.998;115.906;2023-11-22T10:45:40;34.70;43.00
5940;DHT22;2995;-31.998;115.906;2023-11-22T10:48:24;34.70;42.90
5940;DHT22;2995;-31.998;115.906;2023-11-22T10:51:39;34.60;42.90
5940;DHT22;2995;-31.998;115.906;2023-11-22T10:54:14;34.50;42.90
5940;DHT22;2995;-31.998;115.906;2023-11-22T10:56:49;34.40;43.40
5940;DHT22;2995;-31.998;115.906;2023-11-22T10:59:27;34.40;43.60
5940;DHT22;2995;-31.998;115.906;2023-11-22T11:02:02;34.40;43.20
5940;DHT22;2995;-31.998;115.906;2023-11-22T11:04:38;34.30;43.80
5940;DHT22;2995;-31.998;115.906;2023-11-22T11:07:14;34.20;43.60
5940;DHT22;2995;-31.998;115.906;2023-11-22T11:09:46;34.20;43.30
5940;DHT22;2995;-31.998;115.906;2023-11-22T11:12:19;34.10;43.30
5940;DHT22;2995;-31.998;115.906;2023-11-22T11:14:51;34.00;42.80
5940;DHT22;2995;-31.998;115.906;2023-11-22T11:17:22;34.00;42.80
5940;DHT22;2995;-31.998;115.906;2023-11-22T11:19:54;34.00;43.30
5940;DHT22;2995;-31.998;115.906;2023-11-22T11:22:27;33.90;43.00
5940;DHT22;2995;-31.998;115.906;2023-11-22T11:25:03;33.80;42.70
5940;DHT22;2995;-31.998;115.906;2023-11-22T11:27:36;33.70;42.60
5940;DHT22;2995;-31.998;115.906;2023-11-22T11:33:12;33.50;42.30
5940;DHT22;2995;-31.998;115.906;2023-11-22T11:35:46;33.50;41.80
5940;DHT22;2995;-31.998;115.906;2023-11-22T11:38:21;33.30;41.30
5940;DHT22;2995;-31.998;115.906;2023-11-22T11:40:53;33.20;41.50
5940;DHT22;2995;-31.998;115.906;2023-11-22T11:43:40;33.30;41.10
5940;DHT22;2995;-31.998;115.906;2023-11-22T11:46:12;33.20;41.00
5940;DHT22;2995;-31.998;115.906;2023-11-22T11:48:49;33.00;40.70
5940;DHT22;2995;-31.998;115.906;2023-11-22T11:51:22;33.10;40.60
5940;DHT22;2995;-31.998;115.906;2023-11-22T11:53:55;32.90;41.20
5940;DHT22;2995;-31.998;115.906;2023-11-22T11:56:26;33.00;40.20
5940;DHT22;2995;-31.998;115.906;2023-11-22T11:59:00;32.90;40.40
5940;DHT22;2995;-31.998;115.906;2023-11-22T12:01:33;32.80;40.20
5940;DHT22;2995;-31.998;115.906;2023-11-22T12:04:04;32.90;39.40
5940;DHT22;2995;-31.998;115.906;2023-11-22T12:06:39;32.70;39.80
5940;DHT22;2995;-31.998;115.906;2023-11-22T12:09:12;32.80;39.00
5940;DHT22;2995;-31.998;115.906;2023-11-22T12:11:43;32.90;38.50
5940;DHT22;2995;-31.998;115.906;2023-11-22T12:14:15;32.80;38.70
5940;DHT22;2995;-31.998;115.906;2023-11-22T12:16:46;32.70;38.20
5940;DHT22;2995;-31.998;115.906;2023-11-22T12:19:24;32.70;37.90
5940;DHT22;2995;-31.998;115.906;2023-11-22T12:21:57;32.80;38.20
5940;DHT22;2995;-31.998;115.906;2023-11-22T12:24:30;32.70;37.90
5940;DHT22;2995;-31.998;115.906;2023-11-22T12:27:02;32.50;38.40
5940;DHT22;2995;-31.998;115.906;2023-11-22T12:29:38;32.60;37.80
5940;DHT22;2995;-31.998;115.906;2023-11-22T12:32:11;32.50;38.20
5940;DHT22;2995;-31.998;115.906;2023-11-22T12:34:45;32.40;38.00
5940;DHT22;2995;-31.998;115.906;2023-11-22T12:37:17;32.50;37.50
5940;DHT22;2995;-31.998;115.906;2023-11-22T12:39:51;32.50;37.80
5940;DHT22;2995;-31.998;115.906;2023-11-22T12:42:22;32.60;37.90
5940;DHT22;2995;-31.998;115.906;2023-11-22T12:44:55;32.50;38.00
5940;DHT22;2995;-31.998;115.906;2023-11-22T12:47:33;32.50;38.30
5940;DHT22;2995;-31.998;115.906;2023-11-22T12:50:06;32.50;38.50
5940;DHT22;2995;-31.998;115.906;2023-11-22T12:52:37;32.20;39.00
5940;DHT22;2995;-31.998;115.906;2023-11-22T12:55:11;32.30;39.10
5940;DHT22;2995;-31.998;115.906;2023-11-22T12:57:42;32.30;39.00
5940;DHT22;2995;-31.998;115.906;2023-11-22T13:00:14;32.30;39.40
5940;DHT22;2995;-31.998;115.906;2023-11-22T13:02:46;32.20;39.40
5940;DHT22;2995;-31.998;115.906;2023-11-22T13:05:17;32.20;39.70
5940;DHT22;2995;-31.998;115.906;2023-11-22T13:07:49;32.10;39.90
5940;DHT22;2995;-31.998;115.906;2023-11-22T13:10:22;32.00;40.20
5940;DHT22;2995;-31.998;115.906;2023-11-22T13:12:54;32.10;40.40
5940;DHT22;2995;-31.998;115.906;2023-11-22T13:15:25;32.00;40.50
5940;DHT22;2995;-31.998;115.906;2023-11-22T13:17:58;32.00;40.60
5940;DHT22;2995;-31.998;115.906;2023-11-22T13:20:29;32.10;40.70
5940;DHT22;2995;-31.998;115.906;2023-11-22T13:23:00;32.00;40.80
5940;DHT22;2995;-31.998;115.906;2023-11-22T13:25:34;31.90;40.80
5940;DHT22;2995;-31.998;115.906;2023-11-22T13:28:06;31.90;40.80
5940;DHT22;2995;-31.998;115.906;2023-11-22T13:30:37;31.90;41.00
5940;DHT22;2995;-31.998;115.906;2023-11-22T13:33:08;31.90;41.70
5940;DHT22;2995;-31.998;115.906;2023-11-22T13:35:40;31.90;41.20
5940;DHT22;2995;-31.998;115.906;2023-11-22T13:38:12;31.90;41.60
5940;DHT22;2995;-31.998;115.906;2023-11-22T13:40:46;31.70;41.90
5940;DHT22;2995;-31.998;115.906;2023-11-22T13:43:17;31.70;41.70
5940;DHT22;2995;-31.998;115.906;2023-11-22T13:45:48;31.70;41.90
5940;DHT22;2995;-31.998;115.906;2023-11-22T13:48:19;31.70;41.90
5940;DHT22;2995;-31.998;115.906;2023-11-22T13:50:52;31.60;42.10
5940;DHT22;2995;-31.998;115.906;2023-11-22T13:53:23;31.60;42.30
5940;DHT22;2995;-31.998;115.906;2023-11-22T13:56:00;31.40;42.70
5940;DHT22;2995;-31.998;115.906;2023-11-22T13:58:36;31.30;42.80
5940;DHT22;2995;-31.998;115.906;2023-11-22T14:01:08;31.30;42.90
5940;DHT22;2995;-31.998;115.906;2023-11-22T14:03:44;31.30;43.20
5940;DHT22;2995;-31.998;115.906;2023-11-22T14:06:15;31.20;43.20
5940;DHT22;2995;-31.998;115.906;2023-11-22T14:08:46;31.00;43.60
5940;DHT22;2995;-31.998;115.906;2023-11-22T14:11:20;31.10;43.50
5940;DHT22;2995;-31.998;115.906;2023-11-22T14:13:51;31.00;43.90
5940;DHT22;2995;-31.998;115.906;2023-11-22T14:16:22;31.00;43.80
5940;DHT22;2995;-31.998;115.906;2023-11-22T14:18:54;30.90;44.00
5940;DHT22;2995;-31.998;115.906;2023-11-22T14:21:25;30.80;44.00
5940;DHT22;2995;-31.998;115.906;2023-11-22T14:23:56;30.70;44.10
5940;DHT22;2995;-31.998;115.906;2023-11-22T14:26:30;30.60;44.40
5940;DHT22;2995;-31.998;115.906;2023-11-22T14:29:01;30.70;44.50
5940;DHT22;2995;-31.998;115.906;2023-11-22T14:31:33;30.60;44.50
5940;DHT22;2995;-31.998;115.906;2023-11-22T14:34:05;30.60;44.60
5940;DHT22;2995;-31.998;115.906;2023-11-22T14:36:34;30.50;44.70
5940;DHT22;2995;-31.998;115.906;2023-11-22T14:39:06;30.50;44.60
5940;DHT22;2995;-31.998;115.906;2023-11-22T14:41:42;30.50;44.70
5940;DHT22;2995;-31.998;115.906;2023-11-22T14:44:13;30.50;44.90
5940;DHT22;2995;-31.998;115.906;2023-11-22T14:46:46;30.40;44.90
5940;DHT22;2995;-31.998;115.906;2023-11-22T14:49:17;30.40;45.00
5940;DHT22;2995;-31.998;115.906;2023-11-22T14:51:49;30.30;44.90
5940;DHT22;2995;-31.998;115.906;2023-11-22T14:54:20;30.40;44.90
5940;DHT22;2995;-31.998;115.906;2023-11-22T14:56:53;30.30;45.10
5940;DHT22;2995;-31.998;115.906;2023-11-22T14:59:29;30.20;45.00
5940;DHT22;2995;-31.998;115.906;2023-11-22T15:02:00;30.20;45.10
5940;DHT22;2995;-31.998;115.906;2023-11-22T15:04:32;30.10;45.10
5940;DHT22;2995;-31.998;115.906;2023-11-22T15:07:05;30.10;45.40
5940;DHT22;2995;-31.998;115.906;2023-11-22T15:09:37;30.10;45.10
5940;DHT22;2995;-31.998;115.906;2023-11-22T15:12:10;29.90;45.20
5940;DHT22;2995;-31.998;115.906;2023-11-22T15:14:41;29.90;45.40
5940;DHT22;2995;-31.998;115.906;2023-11-22T15:17:14;30.00;45.40
5940;DHT22;2995;-31.998;115.906;2023-11-22T15:19:46;30.00;45.40
5940;DHT22;2995;-31.998;115.906;2023-11-22T15:22:17;29.90;45.30
5940;DHT22;2995;-31.998;115.906;2023-11-22T15:24:48;30.00;45.30
5940;DHT22;2995;-31.998;115.906;2023-11-22T15:27:22;29.90;45.30
5940;DHT22;2995;-31.998;115.906;2023-11-22T15:29:53;29.90;45.20
5940;DHT22;2995;-31.998;115.906;2023-11-22T15:32:24;29.90;45.30
5940;DHT22;2995;-31.998;115.906;2023-11-22T15:34:56;29.90;45.40
5940;DHT22;2995;-31.998;115.906;2023-11-22T15:37:27;29.80;45.30
5940;DHT22;2995;-31.998;115.906;2023-11-22T15:39:58;29.90;45.30
5940;DHT22;2995;-31.998;115.906;2023-11-22T15:42:33;29.80;45.40
5940;DHT22;2995;-31.998;115.906;2023-11-22T15:45:04;29.80;45.40
5940;DHT22;2995;-31.998;115.906;2023-11-22T15:47:36;29.70;45.40
5940;DHT22;2995;-31.998;115.906;2023-11-22T15:50:08;29.70;45.30
5940;DHT22;2995;-31.998;115.906;2023-11-22T15:52:39;29.60;45.40
5940;DHT22;2995;-31.998;115.906;2023-11-22T15:55:10;29.60;45.40
5940;DHT22;2995;-31.998;115.906;2023-11-22T15:57:43;29.60;45.40